NSFANSTU

Guest
Details From NSFA - Faleolo International
To NSTU - Pago Pago
Flight Number -
Tags generated
Created
Modified
Stats Distance 81 nm / 151 km
Max Altitude 3,600 ft / 1,097 m
Waypoints 3
Social Downloads 4
Likes 0
Share VATSIM

Download

Looking for another format? Having issues loading an existing format? Contact us
Advertisement - Login to hide

Notes

Basic altitude profile: - Ascent Rate: 2500ft/min - Ascent Speed: 250kts - Cruise Altitude: 35000ft - Cruise Speed: 420kts - Descent Rate: 1500ft/min - Descent Speed: 250kts Options: - Use NATs: yes - Use PACOTS: yes - Use low airways: no - Use high airways: yes

Route

NSFA ALOHI NSTU

ID Type Via Altitude Latitude Longitude Leg Dist Tot Dist Heading (true) Name
O NSFA APT - 0 ft / 0 m -13.83002˚ -172.00910˚ - 0 nm - Faleolo International
ALOHI FIX - 3,600 ft / 1,097 m -14.22717˚ -170.97930˚ 64 nm 64 nm 112° / 112° -
O NSTU APT - 0 ft / 0 m -14.33006˚ -170.71024˚ 16 nm 81 nm 112° / 112° Pago Pago

Altitude Profile

Advertisement - Login to hide

NSFA

Details ICAO NSFA (APW)
Name Faleolo International
Region American Samoa
Timezone Pacific/Apia (UTC+14.0)
Stats Elevation 58 ft / 18 m (AMSL)
Location -13.830023° -172.009102°
Runways 1
Magnetic Variation 11.656° E

METAR

NSFA 121700Z 00000KT 9999 FEW028 SCT050 25/23 Q1008

Decode

TAF

TAF NSFA 121703Z 1218/1318 10005KT 9999 FEW028 SCT050 PROB40 TEMPO 1302/1306 5000 TSRA FEW017CB

Decode

Departure Runways

ID Width Length Bearing (true) Bearing (mag) Surface Threshold Offset Overrun Length
08 148 ft / 45 m 10,361 ft / 3,158 m 89.30° 77.64° Asphalt 515 ft / 157 m 0 ft / 0 m
26 148 ft / 45 m 10,361 ft / 3,158 m 269.30° 257.64° Asphalt 0 ft / 0 m 102 ft / 31 m

NSTU

Details ICAO NSTU (PPG)
Name Pago Pago
Region American Samoa
Timezone Unknown (UTC+0.0)
Stats Elevation 0 ft / 0 m (AMSL)
Location -14.330060° -170.710244°
Runways 2
Magnetic Variation 11.772° E

METAR

NSTU 121750Z VRB04KT 11SM FEW021 BKN100 BKN200 25/24 A2977 RMK SHRAE15 SLP083 60023 8/128 T02490239 10256 20246 52010

Decode

TAF

TAF NSTU 121740Z 1218/1318 VRB06KT P6SM VCSH SCT020 BKN040 BKN100 TEMPO 1218/1221 5SM SHRA BR BKN020 OVC040

Decode

Destination Runways

ID Width Length Bearing (true) Bearing (mag) Surface Threshold Offset Overrun Length
05 151 ft / 46 m 10,007 ft / 3,050 m 60.00° 48.23° Asphalt 1,001 ft / 305 m 413 ft / 126 m
08 98 ft / 30 m 3,907 ft / 1,191 m 89.93° 78.16° Asphalt 0 ft / 0 m 371 ft / 113 m
23 151 ft / 46 m 10,007 ft / 3,050 m 240.00° 228.23° Asphalt 784 ft / 239 m 226 ft / 69 m
26 98 ft / 30 m 3,907 ft / 1,191 m 269.93° 258.16° Asphalt 112 ft / 34 m 0 ft / 0 m

Approach Navaids

Runway Type Ident Frequency Range Bearing (true) Bearing (mag) Slope Elevation
05 Localiser ITUT 110.30 MHz 18 nm / 33 km 58.08° 46.30° - 9 ft / 3 m (AMSL)
05 Glidescope ITUT 110.30 MHz 10 nm / 19 km 60.00° 48.23° 3.25° 28 ft / 9 m (AMSL)
05 DME ITUT 110.30 MHz 18 nm / 33 km - - - 9 ft / 3 m (AMSL)

Popular Alternatives